createdAt,value
2019-05-19T00:00:07.247Z,94.64
2019-05-19T00:02:33.978Z,96.72
2019-05-19T00:05:00.716Z,97.57
2019-05-19T00:07:27.463Z,99.27
2019-05-19T00:09:54.198Z,99.06
2019-05-19T00:12:20.942Z,98.68
2019-05-19T00:14:47.663Z,97.75
2019-05-19T00:17:14.487Z,95.01
2019-05-19T00:19:41.223Z,94.39
2019-05-19T00:22:07.968Z,94.35
2019-05-19T00:24:34.698Z,94.56
2019-05-19T00:27:01.461Z,96.70
2019-05-19T00:29:28.187Z,97.43
2019-05-19T00:31:54.939Z,97.35
2019-05-19T00:34:21.658Z,97.25
2019-05-19T00:36:48.396Z,96.66
2019-05-19T00:39:15.138Z,97.33
2019-05-19T00:41:41.866Z,96.97
2019-05-19T00:44:08.601Z,97.21
2019-05-19T00:46:35.332Z,96.01
2019-05-19T00:49:02.094Z,97.05
2019-05-19T00:51:28.830Z,97.46
2019-05-19T00:53:55.575Z,98.29
2019-05-19T00:56:22.327Z,97.62
2019-05-19T00:58:49.098Z,97.40
2019-05-19T01:01:15.886Z,97.48
2019-05-19T01:03:42.639Z,96.41
2019-05-19T01:06:09.395Z,96.40
2019-05-19T01:08:36.122Z,97.50
2019-05-19T01:11:02.882Z,96.31
2019-05-19T01:13:29.618Z,95.62
2019-05-19T01:15:56.341Z,95.83
2019-05-19T01:18:23.084Z,95.62
2019-05-19T01:20:49.810Z,96.17
2019-05-19T01:23:16.558Z,93.64
2019-05-19T01:25:43.285Z,94.83
2019-05-19T01:28:10.034Z,95.69
2019-05-19T01:30:36.981Z,96.09
2019-05-19T01:33:03.718Z,95.46
2019-05-19T01:35:30.450Z,95.89
2019-05-19T01:37:57.198Z,96.73
2019-05-19T01:40:23.931Z,96.55
2019-05-19T01:42:50.670Z,94.87
2019-05-19T01:45:17.422Z,94.65
2019-05-19T01:47:44.174Z,94.05
2019-05-19T01:50:18.779Z,94.21
2019-05-19T01:52:37.647Z,93.17
2019-05-19T01:55:04.422Z,94.37
2019-05-19T01:57:31.146Z,93.73
2019-05-19T01:59:57.910Z,92.89
2019-05-19T02:02:24.646Z,92.40
2019-05-19T02:04:51.467Z,92.12
2019-05-19T02:07:18.190Z,91.41
2019-05-19T02:09:44.955Z,92.61
2019-05-19T02:12:11.674Z,92.42
2019-05-19T02:14:38.414Z,92.82
2019-05-19T02:17:05.160Z,93.77
2019-05-19T02:19:31.915Z,93.89
2019-05-19T02:21:58.630Z,93.25
2019-05-19T02:24:25.386Z,92.77
2019-05-19T02:26:52.119Z,93.62
2019-05-19T02:29:18.857Z,95.08
2019-05-19T02:31:45.609Z,95.65
2019-05-19T02:34:12.447Z,95.82
2019-05-19T02:36:39.179Z,96.13
2019-05-19T02:39:05.934Z,94.03
2019-05-19T02:41:32.690Z,92.41
2019-05-19T02:43:59.394Z,92.22
2019-05-19T02:46:26.125Z,92.38
2019-05-19T02:48:53.145Z,92.22
2019-05-19T02:51:19.901Z,92.80
2019-05-19T02:53:46.623Z,92.61
2019-05-19T02:56:13.355Z,92.33
2019-05-19T02:58:40.081Z,92.27
2019-05-19T03:01:06.839Z,93.21
2019-05-19T03:03:33.582Z,93.85
2019-05-19T03:06:00.323Z,93.55
2019-05-19T03:08:27.047Z,93.51
2019-05-19T03:10:53.798Z,92.44
2019-05-19T03:13:20.523Z,90.29
2019-05-19T03:15:47.258Z,92.21
2019-05-19T03:18:13.981Z,95.52
2019-05-19T03:20:40.727Z,97.30
2019-05-19T03:23:07.510Z,98.21
2019-05-19T03:25:34.290Z,98.73
2019-05-19T03:28:01.039Z,98.63
2019-05-19T03:30:53.345Z,99.42
2019-05-19T03:33:22.572Z,100.00
2019-05-19T03:35:49.311Z,100.00
2019-05-19T03:38:16.073Z,100.00
2019-05-19T03:40:42.831Z,99.08
2019-05-19T03:43:09.635Z,98.64
2019-05-19T03:45:36.373Z,97.33
2019-05-19T03:48:03.099Z,95.68
2019-05-19T03:50:29.846Z,92.94
2019-05-19T03:52:56.582Z,93.79
2019-05-19T03:55:23.343Z,93.22
2019-05-19T03:57:50.067Z,93.10
2019-05-19T04:00:16.801Z,92.14
2019-05-19T04:02:43.547Z,93.18
2019-05-19T04:05:10.283Z,94.75
2019-05-19T04:07:37.031Z,94.58
2019-05-19T04:10:04.074Z,93.44
2019-05-19T04:12:30.855Z,93.33
2019-05-19T04:14:57.576Z,92.97
2019-05-19T04:17:24.326Z,93.08
2019-05-19T04:19:51.055Z,93.20
2019-05-19T04:22:17.843Z,91.87
2019-05-19T04:24:44.712Z,93.10
2019-05-19T04:27:11.490Z,93.39
2019-05-19T04:29:39.536Z,93.44
2019-05-19T04:32:04.962Z,92.47
2019-05-19T04:34:31.701Z,92.16
2019-05-19T04:36:58.512Z,91.50
2019-05-19T04:39:25.186Z,93.57
2019-05-19T04:41:51.920Z,94.87
2019-05-19T04:44:18.680Z,94.96
2019-05-19T04:46:45.401Z,96.34
2019-05-19T04:49:12.228Z,97.18
2019-05-19T04:51:38.987Z,98.21
2019-05-19T04:54:05.710Z,98.71
2019-05-19T04:56:32.463Z,100.00
2019-05-19T04:58:59.191Z,100.00
2019-05-19T05:01:25.919Z,100.00
2019-05-19T05:03:52.683Z,100.00
2019-05-19T05:06:19.410Z,97.74
2019-05-19T05:08:46.162Z,97.33
2019-05-19T05:11:12.902Z,96.11
2019-05-19T05:13:39.642Z,94.71
2019-05-19T05:16:06.391Z,93.55
2019-05-19T05:18:33.133Z,91.98
2019-05-19T05:20:59.863Z,92.47
2019-05-19T05:23:26.612Z,94.42
2019-05-19T05:25:53.345Z,94.66
2019-05-19T05:28:20.190Z,93.81
2019-05-19T05:30:47.069Z,91.21
2019-05-19T05:33:13.830Z,92.15
2019-05-19T05:35:40.574Z,91.81
2019-05-19T05:38:07.327Z,92.23
2019-05-19T05:40:34.194Z,90.68
2019-05-19T05:43:00.955Z,91.16
2019-05-19T05:45:27.670Z,91.42
2019-05-19T05:47:54.410Z,89.07
2019-05-19T05:50:21.151Z,90.22
2019-05-19T05:52:48.078Z,93.93
2019-05-19T05:55:14.844Z,96.25
2019-05-19T05:57:41.574Z,96.93
2019-05-19T06:00:08.386Z,99.11
2019-05-19T06:02:35.127Z,100.00
2019-05-19T06:05:01.954Z,100.00
2019-05-19T06:07:28.666Z,100.00
2019-05-19T06:09:55.490Z,100.00
2019-05-19T06:12:22.206Z,98.20
2019-05-19T06:14:48.955Z,97.34
2019-05-19T06:17:15.704Z,95.81
2019-05-19T06:19:42.451Z,94.47
2019-05-19T06:22:09.179Z,93.94
2019-05-19T06:24:35.938Z,91.09
2019-05-19T06:27:02.662Z,90.97
2019-05-19T06:29:29.427Z,89.26
2019-05-19T06:31:58.961Z,89.27
2019-05-19T06:34:25.695Z,87.10
2019-05-19T06:36:55.102Z,88.55
2019-05-19T06:39:19.386Z,87.71
2019-05-19T06:41:46.111Z,89.11
2019-05-19T06:44:12.903Z,88.17
2019-05-19T06:46:39.634Z,90.06
2019-05-19T06:49:06.389Z,90.04
2019-05-19T06:51:33.122Z,89.78
2019-05-19T06:53:59.863Z,90.13
2019-05-19T06:56:26.622Z,89.36
2019-05-19T06:58:53.427Z,89.80
2019-05-19T07:01:20.183Z,89.88
2019-05-19T07:03:46.930Z,91.44
2019-05-19T07:06:13.678Z,92.03
2019-05-19T07:08:40.418Z,90.97
2019-05-19T07:11:07.174Z,90.64
2019-05-19T07:13:33.925Z,90.28
2019-05-19T07:16:00.653Z,92.52
2019-05-19T07:18:27.368Z,92.95
2019-05-19T07:20:54.111Z,93.24
2019-05-19T07:23:28.097Z,91.96
2019-05-19T07:25:47.705Z,94.59
2019-05-19T07:28:14.837Z,94.01
2019-05-19T07:30:41.598Z,94.93
2019-05-19T07:33:08.401Z,93.49
2019-05-19T07:35:35.599Z,92.53
2019-05-19T07:38:02.416Z,92.86
2019-05-19T07:40:29.147Z,94.01
2019-05-19T07:42:56.306Z,95.27
2019-05-19T07:45:23.158Z,95.47
2019-05-19T07:47:49.910Z,94.77
2019-05-19T07:50:16.774Z,92.89
2019-05-19T07:52:43.505Z,93.17
2019-05-19T07:55:10.307Z,92.08
2019-05-19T07:57:37.052Z,92.48
2019-05-19T08:00:04.992Z,92.54
2019-05-19T08:02:31.100Z,91.26
2019-05-19T08:04:57.791Z,90.68
2019-05-19T08:07:24.520Z,90.75
2019-05-19T08:09:51.250Z,89.17
2019-05-19T08:12:18.002Z,87.71
2019-05-19T08:14:44.722Z,86.19
2019-05-19T08:17:11.462Z,84.74
2019-05-19T08:19:38.216Z,82.87
2019-05-19T08:22:04.950Z,80.84
2019-05-19T08:24:31.698Z,80.82
2019-05-19T08:26:58.475Z,78.40
2019-05-19T08:29:25.206Z,78.64
2019-05-19T08:31:51.946Z,75.34
2019-05-19T08:34:18.678Z,77.32
2019-05-19T08:36:45.598Z,77.87
2019-05-19T08:39:12.150Z,79.71
2019-05-19T08:41:38.981Z,79.45
2019-05-19T08:44:05.728Z,78.88
2019-05-19T08:46:32.571Z,78.76
2019-05-19T08:48:59.327Z,75.07
2019-05-19T08:51:26.096Z,77.42
2019-05-19T08:53:52.803Z,79.54
2019-05-19T08:56:19.555Z,78.82
2019-05-19T08:58:46.283Z,77.06
2019-05-19T09:01:13.010Z,77.08
2019-05-19T09:03:39.765Z,75.99
2019-05-19T09:06:06.578Z,72.84
2019-05-19T09:08:33.326Z,72.53
2019-05-19T09:11:00.162Z,70.81
2019-05-19T09:13:27.318Z,68.85
2019-05-19T09:15:54.137Z,68.63
2019-05-19T09:18:20.890Z,64.46
2019-05-19T09:20:47.639Z,61.73
2019-05-19T09:23:14.382Z,60.04
2019-05-19T09:25:41.110Z,62.27
2019-05-19T09:28:07.954Z,62.52
2019-05-19T09:30:34.710Z,63.97
2019-05-19T09:33:01.594Z,61.94
2019-05-19T09:35:28.265Z,61.89
2019-05-19T09:37:55.062Z,61.72
2019-05-19T09:40:21.862Z,64.39
2019-05-19T09:42:48.613Z,61.33
2019-05-19T09:45:15.397Z,60.99
2019-05-19T09:47:42.213Z,57.50
2019-05-19T09:50:08.956Z,59.36
2019-05-19T09:52:35.698Z,58.33
2019-05-19T09:55:02.474Z,58.21
2019-05-19T09:57:29.215Z,61.43
2019-05-19T09:59:55.949Z,62.64
2019-05-19T10:02:22.747Z,66.75
2019-05-19T10:04:49.474Z,65.20
2019-05-19T10:07:16.202Z,64.67
2019-05-19T10:10:01.861Z,66.23
2019-05-19T10:12:28.834Z,63.44
2019-05-19T10:14:55.584Z,62.16
2019-05-19T10:17:22.313Z,61.28
2019-05-19T10:19:49.069Z,66.04
2019-05-19T10:22:15.894Z,67.36
2019-05-19T10:24:59.204Z,65.21
2019-05-19T10:27:09.502Z,65.83
2019-05-19T10:29:36.262Z,66.81
2019-05-19T10:32:03.011Z,66.64
2019-05-19T10:34:29.758Z,66.43
2019-05-19T10:36:56.566Z,64.56
2019-05-19T10:39:23.323Z,66.26
2019-05-19T10:41:50.074Z,64.19
2019-05-19T10:44:16.859Z,62.31
2019-05-19T10:46:43.593Z,61.89
2019-05-19T10:49:10.351Z,63.39
2019-05-19T10:51:37.098Z,64.36
2019-05-19T10:54:03.870Z,63.06
2019-05-19T10:56:30.606Z,62.57
2019-05-19T10:58:57.355Z,63.31
2019-05-19T11:01:24.305Z,63.27
2019-05-19T11:03:51.044Z,64.60
2019-05-19T11:06:17.850Z,64.44
2019-05-19T11:08:44.590Z,60.99
2019-05-19T11:11:11.346Z,61.75
2019-05-19T11:13:38.063Z,63.64
2019-05-19T11:16:04.815Z,59.21
2019-05-19T11:18:31.557Z,58.54
2019-05-19T11:20:58.318Z,59.24
2019-05-19T11:23:25.034Z,58.73
2019-05-19T11:25:57.648Z,58.77
2019-05-19T11:28:24.580Z,58.37
2019-05-19T11:31:01.008Z,57.64
2019-05-19T11:33:29.776Z,55.83
2019-05-19T11:35:58.789Z,54.86
2019-05-19T11:38:28.938Z,53.51
2019-05-19T11:40:59.266Z,53.05
2019-05-19T11:43:29.250Z,54.76
2019-05-19T11:45:58.243Z,53.21
2019-05-19T11:48:26.882Z,52.72
2019-05-19T11:50:55.943Z,53.19
2019-05-19T11:53:24.834Z,54.86
2019-05-19T11:56:05.710Z,55.92
2019-05-19T11:58:22.124Z,56.31
2019-05-19T12:00:49.720Z,55.58
2019-05-19T12:03:20.684Z,55.32
2019-05-19T12:05:48.700Z,52.60
2019-05-19T12:08:17.391Z,54.92
2019-05-19T12:10:53.816Z,55.29
2019-05-19T12:13:21.526Z,57.01
2019-05-19T12:15:52.159Z,57.86
2019-05-19T12:18:21.297Z,59.23
2019-05-19T12:20:49.519Z,58.45
2019-05-19T12:23:18.976Z,55.23
2019-05-19T12:25:49.424Z,55.18
2019-05-19T12:28:19.385Z,53.25
2019-05-19T12:30:50.790Z,52.97
2019-05-19T12:33:21.663Z,53.81
2019-05-19T12:35:50.775Z,54.13
2019-05-19T12:38:21.777Z,55.95
2019-05-19T12:40:53.581Z,54.61
2019-05-19T12:43:23.386Z,54.78
2019-05-19T12:45:55.687Z,52.97
2019-05-19T12:48:24.241Z,51.17
2019-05-19T12:50:52.238Z,51.48
2019-05-19T12:53:21.641Z,48.78
2019-05-19T12:55:51.039Z,50.45
2019-05-19T12:58:22.306Z,51.69
2019-05-19T13:00:51.474Z,51.44
2019-05-19T13:03:24.564Z,54.29
2019-05-19T13:05:55.924Z,54.72
2019-05-19T13:08:24.080Z,52.43
2019-05-19T13:10:53.167Z,51.07
2019-05-19T13:13:23.695Z,50.29
2019-05-19T13:16:00.700Z,48.81
2019-05-19T13:18:33.465Z,47.42
2019-05-19T13:21:01.959Z,49.70
2019-05-19T13:23:35.673Z,50.83
2019-05-19T13:26:00.365Z,50.79
2019-05-19T13:28:29.268Z,50.47
2019-05-19T13:30:58.034Z,51.50
2019-05-19T13:33:25.674Z,51.92
2019-05-19T13:35:57.966Z,53.42
2019-05-19T13:38:26.735Z,52.64
2019-05-19T13:40:55.024Z,53.93
2019-05-19T13:43:28.313Z,53.57
2019-05-19T13:45:55.961Z,51.47
2019-05-19T13:48:24.461Z,50.34
2019-05-19T13:50:55.533Z,49.67
2019-05-19T13:53:29.108Z,49.69
2019-05-19T13:55:54.109Z,49.14
2019-05-19T13:58:26.085Z,49.36
2019-05-19T14:00:58.196Z,49.07
2019-05-19T14:03:31.019Z,51.53
2019-05-19T14:05:59.317Z,51.64
2019-05-19T14:08:30.972Z,48.83
2019-05-19T14:10:59.106Z,49.39
2019-05-19T14:13:28.268Z,47.70
2019-05-19T14:15:56.710Z,48.19
2019-05-19T14:18:27.024Z,49.87
2019-05-19T14:20:57.964Z,50.81
2019-05-19T14:23:26.710Z,49.06
2019-05-19T14:25:56.438Z,47.77
2019-05-19T14:28:26.847Z,47.39
2019-05-19T14:30:58.037Z,48.94
2019-05-19T14:33:26.606Z,49.94
2019-05-19T14:35:57.513Z,50.76
2019-05-19T14:38:29.004Z,51.42
2019-05-19T14:40:59.947Z,51.54
2019-05-19T14:43:29.961Z,52.32
2019-05-19T14:45:59.754Z,53.97
2019-05-19T14:48:28.746Z,53.98
2019-05-19T14:50:59.911Z,52.92
2019-05-19T14:53:29.394Z,52.19
2019-05-19T14:56:00.429Z,51.35
2019-05-19T14:58:27.910Z,51.64
2019-05-19T15:00:55.649Z,51.52
2019-05-19T15:03:24.337Z,49.05
2019-05-19T15:05:55.142Z,49.08
2019-05-19T15:08:22.845Z,50.10
2019-05-19T15:10:51.161Z,49.32
2019-05-19T15:13:20.613Z,48.26
2019-05-19T15:15:49.444Z,48.36
2019-05-19T15:18:16.788Z,50.14
2019-05-19T15:20:45.305Z,50.12
2019-05-19T15:23:15.386Z,48.84
2019-05-19T15:25:44.372Z,49.32
2019-05-19T15:28:13.625Z,46.16
2019-05-19T15:30:40.991Z,47.84
2019-05-19T15:33:09.130Z,45.33
2019-05-19T15:35:37.995Z,47.32
2019-05-19T15:38:05.546Z,46.71
2019-05-19T15:40:33.298Z,48.08
2019-05-19T15:43:01.286Z,48.57
2019-05-19T15:45:30.079Z,49.21
2019-05-19T15:47:59.543Z,48.99
2019-05-19T15:50:27.466Z,50.89
2019-05-19T15:52:55.493Z,48.81
2019-05-19T15:55:25.722Z,49.59
2019-05-19T15:57:53.588Z,50.58
2019-05-19T16:00:22.513Z,50.16
2019-05-19T16:02:51.468Z,49.62
2019-05-19T16:05:27.671Z,51.85
2019-05-19T16:07:55.393Z,53.86
2019-05-19T16:10:28.096Z,55.39
2019-05-19T16:12:56.935Z,57.68
2019-05-19T16:15:25.794Z,57.05
2019-05-19T16:17:56.156Z,59.49
2019-05-19T16:20:28.364Z,57.23
2019-05-19T16:22:57.992Z,55.64
2019-05-19T16:25:30.122Z,55.38
2019-05-19T16:28:01.424Z,53.85
2019-05-19T16:30:30.173Z,53.99
2019-05-19T16:33:01.624Z,54.57
2019-05-19T16:35:28.923Z,55.16
2019-05-19T16:37:58.704Z,55.36
2019-05-19T16:40:28.886Z,54.33
2019-05-19T16:42:57.469Z,56.13
2019-05-19T16:45:31.854Z,56.97
2019-05-19T16:47:59.990Z,56.77
2019-05-19T16:50:31.757Z,57.97
2019-05-19T16:52:59.819Z,56.31
2019-05-19T16:55:31.756Z,58.44
2019-05-19T16:57:59.827Z,57.60
2019-05-19T17:00:28.491Z,55.91
2019-05-19T17:03:02.256Z,56.95
2019-05-19T17:05:31.863Z,56.17
2019-05-19T17:08:03.176Z,57.63
2019-05-19T17:10:33.996Z,56.36
2019-05-19T17:13:02.482Z,55.62
2019-05-19T17:15:32.177Z,55.89
2019-05-19T17:18:08.311Z,54.43
2019-05-19T17:20:36.223Z,54.00
2019-05-19T17:23:12.181Z,53.64
2019-05-19T17:25:39.988Z,53.24
2019-05-19T17:28:08.949Z,54.80
2019-05-19T17:30:37.659Z,54.48
2019-05-19T17:33:07.744Z,56.09
2019-05-19T17:35:36.401Z,53.49
2019-05-19T17:38:07.997Z,55.52
2019-05-19T17:40:37.714Z,56.88
2019-05-19T17:43:07.013Z,55.56
2019-05-19T17:45:36.561Z,54.54
2019-05-19T17:48:10.084Z,56.63
2019-05-19T17:50:38.682Z,58.98
2019-05-19T17:53:06.880Z,59.78
2019-05-19T17:55:39.460Z,59.54
2019-05-19T17:58:07.546Z,59.08
2019-05-19T18:00:38.763Z,60.76
2019-05-19T18:03:10.959Z,62.11
2019-05-19T18:05:39.839Z,63.66
2019-05-19T18:08:10.119Z,63.86
2019-05-19T18:10:37.932Z,65.76
2019-05-19T18:13:10.637Z,65.87
2019-05-19T18:15:40.073Z,68.06
2019-05-19T18:18:09.935Z,68.35
2019-05-19T18:20:38.579Z,69.73
2019-05-19T18:23:07.900Z,69.20
2019-05-19T18:25:40.789Z,69.98
2019-05-19T18:28:10.082Z,70.07
2019-05-19T18:30:39.281Z,68.86
2019-05-19T18:33:08.808Z,68.09
2019-05-19T18:35:39.690Z,69.08
2019-05-19T18:38:09.743Z,68.70
2019-05-19T18:40:39.247Z,67.59
2019-05-19T18:43:11.003Z,69.05
2019-05-19T18:45:40.166Z,67.11
2019-05-19T18:48:10.380Z,67.98
2019-05-19T18:50:39.167Z,67.75
2019-05-19T18:53:08.259Z,67.59
2019-05-19T18:55:37.567Z,65.15
2019-05-19T18:58:07.529Z,67.28
2019-05-19T19:00:40.473Z,67.06
2019-05-19T19:03:10.206Z,68.73
2019-05-19T19:05:40.698Z,66.96
2019-05-19T19:08:09.088Z,68.71
2019-05-19T19:10:39.205Z,68.28
2019-05-19T19:13:14.405Z,69.68
2019-05-19T19:15:42.885Z,69.95
2019-05-19T19:18:12.142Z,70.21
2019-05-19T19:20:41.510Z,70.31
2019-05-19T19:23:15.772Z,69.15
2019-05-19T19:25:45.081Z,70.37
2019-05-19T19:28:15.082Z,69.87
2019-05-19T19:30:47.060Z,68.94
2019-05-19T19:33:20.991Z,67.45
2019-05-19T19:35:49.449Z,68.38
2019-05-19T19:38:20.308Z,68.28
2019-05-19T19:40:50.379Z,68.20
2019-05-19T19:43:21.014Z,69.28
2019-05-19T19:45:55.911Z,69.14
2019-05-19T19:48:23.639Z,69.44
2019-05-19T19:50:52.297Z,70.55
2019-05-19T19:53:22.244Z,70.25
2019-05-19T19:55:50.695Z,70.56
2019-05-19T19:58:23.753Z,70.61
2019-05-19T20:00:54.658Z,70.40
2019-05-19T20:03:24.280Z,72.23
2019-05-19T20:05:55.474Z,74.87
2019-05-19T20:08:28.474Z,75.55
2019-05-19T20:10:58.455Z,75.78
2019-05-19T20:13:29.191Z,74.89
2019-05-19T20:15:58.526Z,76.09
2019-05-19T20:18:26.927Z,76.40
2019-05-19T20:20:56.718Z,77.35
2019-05-19T20:23:25.568Z,78.14
2019-05-19T20:25:55.647Z,77.37
2019-05-19T20:28:24.983Z,78.79
2019-05-19T20:30:54.389Z,78.85
2019-05-19T20:33:24.116Z,79.78
2019-05-19T20:35:53.209Z,79.48
2019-05-19T20:38:24.361Z,80.24
2019-05-19T20:41:00.972Z,78.45
2019-05-19T20:43:33.280Z,80.92
2019-05-19T20:46:01.855Z,82.09
2019-05-19T20:48:32.760Z,83.21
2019-05-19T20:50:58.991Z,83.16
2019-05-19T20:53:29.194Z,83.24
2019-05-19T20:55:58.037Z,83.19
2019-05-19T20:58:26.720Z,83.61
2019-05-19T21:00:55.659Z,85.40
2019-05-19T21:03:31.126Z,86.49
2019-05-19T21:06:04.451Z,85.20
2019-05-19T21:08:35.082Z,83.60
2019-05-19T21:11:04.227Z,84.67
2019-05-19T21:13:37.007Z,84.48
2019-05-19T21:16:05.067Z,84.14
2019-05-19T21:18:39.766Z,83.17
2019-05-19T21:21:11.505Z,83.67
2019-05-19T21:23:42.470Z,83.20
2019-05-19T21:26:18.626Z,82.50
2019-05-19T21:28:46.163Z,83.74
2019-05-19T21:31:15.421Z,83.28
2019-05-19T21:33:48.686Z,83.12
2019-05-19T21:36:20.939Z,82.14
2019-05-19T21:38:50.078Z,80.16
2019-05-19T21:41:23.905Z,80.63
2019-05-19T21:43:58.734Z,80.94
2019-05-19T21:46:30.559Z,81.52
2019-05-19T21:49:02.027Z,81.63
2019-05-19T21:51:32.963Z,78.99
2019-05-19T21:54:02.576Z,79.01
2019-05-19T21:56:32.567Z,79.05
2019-05-19T21:59:02.140Z,78.91
2019-05-19T22:01:36.976Z,78.32
2019-05-19T22:04:06.569Z,78.69
2019-05-19T22:06:40.028Z,78.79
2019-05-19T22:09:14.705Z,78.76
2019-05-19T22:11:43.756Z,78.92
2019-05-19T22:14:13.866Z,78.56
2019-05-19T22:16:42.348Z,78.65
2019-05-19T22:19:11.033Z,78.98
2019-05-19T22:21:41.235Z,78.58
2019-05-19T22:24:10.130Z,78.60
2019-05-19T22:26:39.748Z,77.46
2019-05-19T22:29:09.986Z,79.01
2019-05-19T22:31:38.454Z,78.29
2019-05-19T22:34:07.943Z,82.12
2019-05-19T22:36:38.922Z,82.34
2019-05-19T22:39:08.003Z,80.80
2019-05-19T22:41:41.844Z,81.42
2019-05-19T22:44:14.154Z,78.22
2019-05-19T22:46:47.140Z,80.38
2019-05-19T22:49:17.903Z,80.42
2019-05-19T22:51:47.204Z,80.60
2019-05-19T22:54:22.831Z,77.66
2019-05-19T22:56:52.169Z,77.28
2019-05-19T22:59:24.296Z,77.31
2019-05-19T23:01:54.019Z,80.05
2019-05-19T23:04:24.900Z,80.70
2019-05-19T23:06:54.650Z,83.24
2019-05-19T23:09:24.365Z,84.32
2019-05-19T23:11:55.237Z,86.16
2019-05-19T23:14:30.880Z,85.62
2019-05-19T23:17:04.551Z,86.77
2019-05-19T23:19:37.121Z,85.56
2019-05-19T23:22:09.765Z,86.71
2019-05-19T23:24:47.603Z,87.23
2019-05-19T23:27:16.946Z,88.12
2019-05-19T23:29:46.175Z,89.56
2019-05-19T23:32:15.339Z,89.32
2019-05-19T23:34:43.333Z,90.17
2019-05-19T23:37:15.232Z,90.08
2019-05-19T23:39:45.984Z,90.23
2019-05-19T23:42:14.135Z,88.92
2019-05-19T23:44:45.080Z,88.53
2019-05-19T23:47:14.596Z,85.87
2019-05-19T23:49:45.038Z,86.10
2019-05-19T23:52:15.457Z,86.90
2019-05-19T23:54:47.601Z,86.27
2019-05-19T23:57:19.587Z,86.90
2019-05-19T23:59:48.781Z,86.15
